Time;durP1;ratioP1;P1;durP2;ratioP2;P2;SDS_P1;SDS_P2;PMS_P1;PMS_P2;Temp;Humidity;BMP_temperature;BMP_pressure;BME280_temperature;BME280_humidity;BME280_pressure;Samples;Min_cycle;Max_cycle;Signal;HPM_P1;HPM_P2
2024/04/12 00:02:08;;;;;;;12.75;7.30;;;;;;;18.13;58.90;103133.03;5297656;26;123706;-82
2024/04/12 00:04:37;;;;;;;10.32;6.90;;;;;;;18.11;59.03;103124.19;5283914;26;122011;-80
2024/04/12 00:07:13;;;;;;;10.07;6.80;;;;;;;18.09;59.14;103116.19;5244431;26;107155;-81
2024/04/12 00:09:43;;;;;;;8.63;6.40;;;;;;;18.09;59.23;103122.44;5280627;26;107785;-82
2024/04/12 00:12:11;;;;;;;9.77;6.60;;;;;;;18.08;59.25;103118.00;5280151;26;121297;-81
2024/04/12 00:14:43;;;;;;;9.23;6.90;;;;;;;18.07;59.13;103108.22;5294554;26;122428;-81
2024/04/12 00:17:15;;;;;;;7.25;5.63;;;;;;;18.05;59.26;103110.09;5248527;26;107036;-81
2024/04/12 00:19:45;;;;;;;8.60;5.95;;;;;;;18.04;59.14;103102.97;5269014;26;107434;-82
2024/04/12 00:22:14;;;;;;;7.95;5.68;;;;;;;18.03;59.06;103101.22;5266600;26;123023;-81
2024/04/12 00:24:42;;;;;;;8.20;5.97;;;;;;;18.02;59.39;103107.50;5282499;26;122381;-82
2024/04/12 00:27:15;;;;;;;7.47;5.63;;;;;;;18.02;58.86;103109.31;5261265;26;108479;-80
2024/04/12 00:29:46;;;;;;;8.07;6.20;;;;;;;18.02;58.76;103106.66;5284126;26;107581;-81
2024/04/12 00:32:15;;;;;;;7.10;5.90;;;;;;;18.00;59.17;103090.63;5264606;26;123144;-82
2024/04/12 00:34:51;;;;;;;9.20;5.72;;;;;;;17.99;58.81;103094.25;5279195;26;122299;-81
2024/04/12 00:37:20;;;;;;;8.02;5.95;;;;;;;17.98;58.85;103089.81;5268135;26;107142;-81
2024/04/12 00:39:49;;;;;;;8.95;6.72;;;;;;;18.00;59.25;103090.63;5291922;26;106999;-81
2024/04/12 00:42:31;;;;;;;9.20;7.15;;;;;;;17.98;59.08;103081.75;5281638;26;122097;-82
2024/04/12 00:45:02;;;;;;;9.15;6.60;;;;;;;17.96;58.63;103078.28;5278902;26;121729;-81
2024/04/12 00:47:31;;;;;;;8.85;7.00;;;;;;;17.96;58.96;103083.63;5277100;26;107746;-81
2024/04/12 00:50:03;;;;;;;8.95;7.20;;;;;;;17.93;59.06;103081.06;5280779;26;107908;-81
2024/04/12 00:52:37;;;;;;;9.93;7.45;;;;;;;17.92;59.00;103076.66;5292763;26;122115;-82
2024/04/12 00:55:09;;;;;;;10.00;8.00;;;;;;;17.91;59.08;103074.91;5280229;26;122115;-82
2024/04/12 00:57:39;;;;;;;10.30;7.90;;;;;;;17.90;59.13;103073.16;5262458;26;106803;-81
2024/04/12 01:00:19;;;;;;;10.80;8.57;;;;;;;17.88;58.96;103064.31;5273639;26;108075;-81
2024/04/12 01:02:48;;;;;;;10.75;8.90;;;;;;;17.88;59.08;103069.69;5280620;26;121309;-82
2024/04/12 01:05:18;;;;;;;11.98;9.43;;;;;;;17.87;59.29;103062.56;5295927;26;121745;-82
2024/04/12 01:07:50;;;;;;;10.88;8.88;;;;;;;17.85;59.14;103053.72;5282434;26;107480;-82
2024/04/12 01:10:26;;;;;;;9.70;8.32;;;;;;;17.84;58.74;103062.66;5282668;26;109001;-82
2024/04/12 01:12:56;;;;;;;9.57;8.40;;;;;;;17.84;58.71;103062.66;5239223;26;121888;-82
2024/04/12 01:15:32;;;;;;;10.70;8.38;;;;;;;17.82;58.76;103059.16;5276955;26;120073;-81
2024/04/12 01:18:04;;;;;;;11.15;8.55;;;;;;;17.83;58.98;103068.94;5261757;26;108179;-81
2024/04/12 01:20:35;;;;;;;9.30;8.15;;;;;;;17.82;58.97;103059.16;5277800;26;109149;-81
2024/04/12 01:23:04;;;;;;;10.25;8.80;;;;;;;17.80;59.05;103047.63;5281288;26;124142;-80
2024/04/12 01:25:33;;;;;;;10.70;8.43;;;;;;;17.80;59.12;103045.84;5279182;26;122221;-81
2024/04/12 01:28:05;;;;;;;10.02;8.65;;;;;;;17.81;58.81;103046.69;5275605;26;106388;-81
2024/04/12 01:30:34;;;;;;;9.82;8.55;;;;;;;17.83;58.56;103039.47;5258769;26;106599;-81
2024/04/12 01:33:06;;;;;;;10.40;8.57;;;;;;;17.84;59.21;103041.22;5281461;26;121394;-81
2024/04/12 01:35:34;;;;;;;10.90;8.32;;;;;;;17.85;59.06;103032.25;5261438;26;123198;-81
2024/04/12 01:38:16;;;;;;;9.07;8.15;;;;;;;17.86;58.87;103039.38;5292649;26;107510;-81
2024/04/12 01:40:46;;;;;;;8.95;7.55;;;;;;;17.85;58.74;103017.03;5292017;26;107736;-81
2024/04/12 01:43:14;;;;;;;9.50;7.65;;;;;;;17.87;58.56;103019.66;5259528;26;122287;-81
2024/04/12 01:45:41;;;;;;;10.88;7.38;;;;;;;17.87;58.73;103006.25;5271356;26;125003;-81
2024/04/12 01:48:08;;;;;;;8.45;7.55;;;;;;;17.87;58.82;102999.09;5256974;26;107423;-83
2024/04/12 01:50:40;;;;;;;8.05;7.07;;;;;;;17.88;59.18;103010.69;5274589;26;108486;-81
2024/04/12 01:53:09;;;;;;;8.07;7.25;;;;;;;17.88;58.71;103010.69;5286747;26;122032;-81
2024/04/12 01:55:39;;;;;;;8.73;6.93;;;;;;;17.86;58.99;103007.22;5248106;26;121839;-81
2024/04/12 01:58:07;;;;;;;8.18;6.80;;;;;;;17.87;59.08;103008.94;5281351;26;107709;-81
2024/04/12 02:00:35;;;;;;;9.52;7.18;;;;;;;17.87;58.80;103014.31;5248580;26;106242;-80
2024/04/12 02:03:02;;;;;;;8.13;6.88;;;;;;;17.86;58.91;103015.25;5255848;26;121649;-81
2024/04/12 02:05:33;;;;;;;7.90;7.10;;;;;;;17.85;58.82;103021.53;5284629;26;123717;-81
2024/04/12 02:08:08;;;;;;;9.30;6.93;;;;;;;17.84;59.15;103017.09;5287237;26;107889;-81
2024/04/12 02:10:42;;;;;;;8.35;7.25;;;;;;;17.83;59.22;103028.75;5280803;26;108683;-82
2024/04/12 02:13:16;;;;;;;8.90;6.97;;;;;;;17.79;59.10;103029.81;5258746;26;121185;-81
2024/04/12 02:15:51;;;;;;;8.82;6.80;;;;;;;17.78;58.86;103030.72;5266489;26;122119;-80
2024/04/12 02:18:20;;;;;;;8.00;6.65;;;;;;;17.77;59.06;103029.00;5290869;26;108109;-81
2024/04/12 02:20:51;;;;;;;6.20;5.53;;;;;;;17.76;58.94;103027.22;5286725;26;107258;-81
2024/04/12 02:23:20;;;;;;;7.90;4.78;;;;;;;17.75;59.09;103025.50;5274990;26;121674;-81
2024/04/12 02:25:49;;;;;;;6.13;5.53;;;;;;;17.71;59.20;103025.63;5252314;26;123086;-82
2024/04/12 02:28:18;;;;;;;5.57;4.78;;;;;;;17.71;58.92;103019.41;5294716;26;107482;-81
2024/04/12 02:31:01;;;;;;;5.05;4.53;;;;;;;17.70;59.39;103023.84;5282281;26;107712;-81
2024/04/12 02:33:31;;;;;;;5.13;4.43;;;;;;;17.69;59.01;103022.13;5283779;26;122063;-82
2024/04/12 02:36:12;;;;;;;4.10;3.70;;;;;;;17.70;58.72;103029.22;5288700;26;121266;-81
2024/04/12 02:38:42;;;;;;;4.45;3.22;;;;;;;17.68;59.01;103031.09;5282906;26;107147;-83
2024/04/12 02:41:13;;;;;;;3.22;2.88;;;;;;;17.67;58.98;103029.38;5258116;26;106343;-81
2024/04/12 02:43:45;;;;;;;4.88;3.42;;;;;;;17.67;59.10;103028.50;5286175;26;121473;-82
2024/04/12 02:46:12;;;;;;;4.20;3.20;;;;;;;17.68;58.92;103031.09;5283336;26;121424;-81
2024/04/12 02:48:43;;;;;;;3.95;3.30;;;;;;;17.68;58.83;103025.72;5285234;26;108372;-81
2024/04/12 02:51:13;;;;;;;3.92;3.00;;;;;;;17.69;58.71;103027.50;5284447;26;107378;-81
2024/04/12 02:53:42;;;;;;;3.85;3.30;;;;;;;17.67;58.77;103029.38;5270269;26;121678;-82
2024/04/12 02:56:13;;;;;;;3.60;2.97;;;;;;;17.66;59.03;103032.09;5281978;26;122680;-82
2024/04/12 02:58:45;;;;;;;4.53;3.33;;;;;;;17.65;59.04;103031.22;5272135;26;106209;-82
2024/04/12 03:01:24;;;;;;;4.38;3.05;;;;;;;17.65;58.82;103036.59;5279566;26;108013;-81
2024/04/12 03:03:58;;;;;;;5.13;2.92;;;;;;;17.66;58.85;103032.09;5276006;26;122434;-81
2024/04/12 03:06:32;;;;;;;3.70;3.00;;;;;;;17.64;58.95;103040.19;5280648;26;120796;-82
2024/04/12 03:09:01;;;;;;;3.38;3.00;;;;;;;17.65;58.82;103041.97;5280973;26;107586;-82
2024/04/12 03:11:34;;;;;;;3.58;3.15;;;;;;;17.64;58.98;103034.84;5287611;26;107522;-81
2024/04/12 03:14:12;;;;;;;3.40;3.00;;;;;;;17.64;58.98;103024.13;5248595;26;121288;-82
2024/04/12 03:16:41;;;;;;;2.80;2.47;;;;;;;17.65;59.04;103031.22;5252225;26;120964;-81
2024/04/12 03:19:10;;;;;;;3.08;2.63;;;;;;;17.66;58.88;103022.25;5256260;26;106781;-83
2024/04/12 03:21:40;;;;;;;2.65;2.33;;;;;;;17.66;58.93;103027.59;5284170;26;107490;-81
2024/04/12 03:24:09;;;;;;;3.17;2.30;;;;;;;17.65;58.69;103031.22;5275545;26;122187;-81
2024/04/12 03:26:37;;;;;;;3.20;2.20;;;;;;;17.66;59.18;103027.59;5249500;26;123310;-81
2024/04/12 03:29:05;;;;;;;2.97;2.33;;;;;;;17.67;58.79;103026.69;5288359;26;107786;-81
2024/04/12 03:31:38;;;;;;;2.33;2.13;;;;;;;17.66;58.85;103016.88;5285261;26;106964;-81
2024/04/12 03:34:07;;;;;;;4.32;2.50;;;;;;;17.68;59.22;103020.38;5262289;26;123024;-81
2024/04/12 03:44:31;;;;;;;3.40;2.15;;;;;;;17.70;59.25;102996.19;5280828;26;122179;-82
2024/04/12 03:47:10;;;;;;;3.60;2.70;;;;;;;17.70;59.11;103007.78;5264670;26;120791;-82
2024/04/12 03:49:41;;;;;;;3.15;2.45;;;;;;;17.71;59.22;102993.47;5288192;26;109097;-82
2024/04/12 03:52:19;;;;;;;4.28;2.58;;;;;;;17.73;58.94;102995.22;5285145;26;107267;-81
2024/04/12 03:54:47;;;;;;;3.00;2.25;;;;;;;17.72;59.27;102994.31;5251933;26;122466;-81
2024/04/12 03:57:16;;;;;;;3.95;2.33;;;;;;;17.73;58.95;102995.22;5270357;26;122079;-82
2024/04/12 03:59:43;;;;;;;2.90;2.17;;;;;;;17.74;58.95;102999.63;5294477;26;107552;-81
2024/04/12 04:02:13;;;;;;;3.15;2.30;;;;;;;17.74;59.30;103002.31;5259551;26;106877;-81
2024/04/12 04:04:45;;;;;;;3.05;2.40;;;;;;;17.75;59.28;103004.06;5254089;26;121979;-81
2024/04/12 04:07:19;;;;;;;3.13;2.20;;;;;;;17.74;59.28;102996.94;5297098;26;123062;-81
2024/04/12 04:09:47;;;;;;;2.90;2.10;;;;;;;17.74;59.29;102983.53;5302735;26;108041;-80
2024/04/12 04:12:15;;;;;;;3.58;2.42;;;;;;;17.76;59.30;102995.06;5301782;26;106684;-81
2024/04/12 04:14:48;;;;;;;3.17;2.63;;;;;;;17.77;59.07;102992.34;5301345;26;122774;-82
2024/04/12 04:17:18;;;;;;;2.95;2.70;;;;;;;17.76;59.02;102987.03;5298180;26;121843;-80
2024/04/12 04:19:46;;;;;;;3.45;2.63;;;;;;;17.76;59.25;102985.22;5269407;26;107666;-82
2024/04/12 04:22:24;;;;;;;4.72;2.97;;;;;;;17.77;59.50;102986.13;5270332;26;106577;-82
2024/04/12 04:24:52;;;;;;;3.80;2.95;;;;;;;17.78;59.41;102986.06;5270920;26;122814;-81
2024/04/12 04:27:24;;;;;;;3.85;2.97;;;;;;;17.78;59.46;102977.13;5266424;26;121125;-80
2024/04/12 04:29:55;;;;;;;5.63;3.00;;;;;;;17.79;59.39;102973.50;5238094;26;107305;-81
2024/04/12 04:32:25;;;;;;;6.07;3.10;;;;;;;17.80;59.22;102969.88;5271611;26;107534;-82
2024/04/12 04:34:55;;;;;;;3.80;2.80;;;;;;;17.80;59.34;102967.19;5265207;26;122243;-81
2024/04/12 04:37:26;;;;;;;4.13;3.08;;;;;;;17.80;59.33;102964.53;5252553;26;122055;-81
2024/04/12 04:40:09;;;;;;;3.70;2.90;;;;;;;17.79;59.25;102962.78;5276256;26;108870;-81
2024/04/12 04:42:38;;;;;;;5.18;3.30;;;;;;;17.80;59.23;102968.09;5285165;26;108729;-83
2024/04/12 04:45:07;;;;;;;7.88;3.67;;;;;;;17.79;59.42;102960.97;5255673;26;121967;-81
2024/04/12 04:47:38;;;;;;;5.40;3.60;;;;;;;17.78;59.58;102961.03;5258654;26;122202;-81
2024/04/12 04:50:10;;;;;;;7.82;3.92;;;;;;;17.78;59.42;102972.66;5265834;26;106591;-81
2024/04/12 04:52:38;;;;;;;6.45;4.25;;;;;;;17.80;59.42;102969.88;5287263;26;107497;-81
2024/04/12 04:55:07;;;;;;;6.88;5.03;;;;;;;17.79;59.72;102978.88;5286465;26;121254;-81
2024/04/12 04:57:43;;;;;;;5.75;4.43;;;;;;;17.78;59.70;102987.84;5272461;26;122536;-81
2024/04/12 05:00:22;;;;;;;6.00;4.93;;;;;;;17.76;59.61;102979.00;5277508;26;107773;-81
2024/04/12 05:02:52;;;;;;;8.25;5.10;;;;;;;17.78;59.56;102977.13;5285191;26;107313;-82
2024/04/12 05:05:26;;;;;;;5.95;4.47;;;;;;;17.79;59.75;102989.59;5268489;26;121921;-82
2024/04/12 05:07:55;;;;;;;8.88;5.10;;;;;;;17.79;59.65;102994.97;5264072;26;121166;-80
2024/04/12 05:10:24;;;;;;;7.65;4.70;;;;;;;17.80;59.63;102985.97;5260871;26;107637;-81
2024/04/12 05:12:53;;;;;;;6.03;4.80;;;;;;;17.81;59.50;102982.38;5263481;26;107592;-81
2024/04/12 05:18:08;;;;;;;5.82;4.35;;;;;;;17.84;59.75;102983.16;5281394;26;122241;-81
2024/04/12 05:20:40;;;;;;;8.95;4.75;;;;;;;17.86;59.91;102985.78;5263237;26;106948;-81
2024/04/12 05:23:13;;;;;;;5.95;4.32;;;;;;;17.86;59.70;102981.28;5281539;26;105980;-81
2024/04/12 05:25:41;;;;;;;7.70;4.88;;;;;;;17.90;59.92;102979.34;5294230;26;123043;-81
2024/04/12 05:28:09;;;;;;;8.75;4.80;;;;;;;17.90;59.96;102973.97;5268308;26;122275;-82
2024/04/12 05:30:37;;;;;;;8.63;5.25;;;;;;;17.91;59.85;102973.00;5263153;26;108775;-81
2024/04/12 05:33:05;;;;;;;10.88;5.35;;;;;;;17.92;59.72;102977.47;5274235;26;108393;-81
2024/04/12 05:35:37;;;;;;;9.02;5.57;;;;;;;17.95;59.84;102974.66;5273253;26;123203;-80
2024/04/12 05:38:07;;;;;;;9.82;5.72;;;;;;;17.98;59.84;102963.78;5258345;26;122151;-80
2024/04/12 05:40:41;;;;;;;9.50;5.78;;;;;;;18.01;59.69;102979.75;5275368;26;107250;-81
2024/04/12 05:43:13;;;;;;;8.73;5.85;;;;;;;18.03;59.50;102983.25;5257655;26;107005;-82
2024/04/12 05:45:43;;;;;;;9.32;6.20;;;;;;;18.05;59.92;102986.72;5290853;26;122096;-82
2024/04/12 05:48:13;;;;;;;9.32;6.13;;;;;;;18.07;59.92;102989.34;5289321;26;122570;-82
2024/04/12 05:50:41;;;;;;;11.23;6.97;;;;;;;18.09;59.77;102991.03;5265692;26;107521;-81
2024/04/12 05:53:11;;;;;;;10.30;6.50;;;;;;;18.11;59.92;102993.63;5286175;26;107543;-81
2024/04/12 05:55:44;;;;;;;11.32;7.35;;;;;;;18.13;59.80;102983.72;5294095;26;123178;-80
2024/04/12 05:58:16;;;;;;;13.38;7.35;;;;;;;18.16;60.19;102977.34;5270304;26;122034;-80
2024/04/12 06:00:47;;;;;;;12.70;7.35;;;;;;;18.20;60.02;102981.66;5278242;26;107300;-81
2024/04/12 06:03:15;;;;;;;14.05;7.90;;;;;;;18.22;59.96;102987.81;5244930;26;105497;-81
2024/04/12 06:05:55;;;;;;;9.95;7.20;;;;;;;18.23;59.85;102978.81;5275450;26;122520;-81
2024/04/12 06:08:23;;;;;;;12.25;7.60;;;;;;;18.27;59.86;102975.06;5249452;26;122145;-81
2024/04/12 06:10:51;;;;;;;14.27;8.20;;;;;;;18.30;60.12;102974.94;5294479;26;108252;-81
2024/04/12 06:13:21;;;;;;;11.35;7.55;;;;;;;18.32;60.13;102981.09;5301335;26;107668;-81
2024/04/12 06:15:48;;;;;;;14.30;7.82;;;;;;;18.35;59.82;102978.31;5265538;26;122408;-81
2024/04/12 06:18:18;;;;;;;12.13;7.20;;;;;;;18.37;59.97;102965.69;5278161;26;121987;-81
2024/04/12 06:20:48;;;;;;;13.77;7.95;;;;;;;18.40;59.99;102964.66;5273305;26;108015;-81
2024/04/12 06:23:17;;;;;;;12.57;7.40;;;;;;;18.42;60.27;102966.38;5287561;26;108092;-81
2024/04/12 06:25:45;;;;;;;15.45;8.02;;;;;;;18.46;60.11;102967.97;5254458;26;121875;-81
2024/04/12 06:28:13;;;;;;;12.07;7.50;;;;;;;18.50;59.93;102971.38;5284279;26;122045;-80
2024/04/12 06:30:46;;;;;;;12.20;6.30;;;;;;;18.52;60.21;102963.28;5256955;26;107465;-80
2024/04/12 06:33:20;;;;;;;10.60;6.38;;;;;;;18.54;60.23;102966.75;5284075;26;107494;-81
2024/04/12 06:36:04;;;;;;;11.98;7.35;;;;;;;18.57;59.97;102974.66;5276702;26;122862;-83
2024/04/12 06:38:34;;;;;;;10.05;6.30;;;;;;;18.60;59.81;102979.91;5245523;26;121763;-82
2024/04/12 06:41:10;;;;;;;10.00;6.80;;;;;;;18.64;60.09;102984.19;5263175;26;106831;-81
2024/04/12 06:43:38;;;;;;;9.82;6.90;;;;;;;18.67;59.65;102984.06;5293535;26;107661;-81
2024/04/12 06:46:08;;;;;;;11.60;6.50;;;;;;;18.69;59.85;102987.53;5271269;26;120278;-80
2024/04/12 06:48:36;;;;;;;12.32;7.35;;;;;;;18.71;59.92;102996.38;5295259;26;122390;-80
2024/04/12 06:51:05;;;;;;;10.77;6.88;;;;;;;18.76;60.20;102989.00;5256454;26;106653;-79
2024/04/12 06:53:33;;;;;;;12.13;7.40;;;;;;;18.80;60.11;102995.13;5275564;26;106183;-82
2024/04/12 06:56:06;;;;;;;11.35;7.10;;;;;;;18.81;59.66;102992.38;5258425;26;122584;-82
2024/04/12 06:58:33;;;;;;;11.00;6.97;;;;;;;18.84;60.00;102997.59;5277986;26;123355;-82
2024/04/12 07:01:05;;;;;;;12.48;7.53;;;;;;;18.84;60.09;102986.88;5250597;26;106970;-83
2024/04/12 07:03:34;;;;;;;12.45;7.35;;;;;;;18.87;59.55;102985.84;5300661;26;108685;-82
2024/04/12 07:06:06;;;;;;;15.63;7.95;;;;;;;18.90;59.81;102984.84;5285692;26;121158;-82
2024/04/12 07:08:34;;;;;;;10.80;7.05;;;;;;;18.92;59.80;102983.81;5286549;26;120925;-83
2024/04/12 07:11:06;;;;;;;13.45;8.00;;;;;;;18.95;59.72;102983.69;5283464;26;107401;-83
2024/04/12 07:13:34;;;;;;;13.23;8.43;;;;;;;18.97;59.83;102984.50;5273505;26;107813;-83
2024/04/12 07:16:01;;;;;;;13.07;7.20;;;;;;;18.99;59.54;102989.81;5272289;26;120207;-83
2024/04/12 07:18:29;;;;;;;12.82;7.93;;;;;;;19.02;59.53;102984.28;5263865;26;122036;-82
2024/04/12 07:21:14;;;;;;;14.60;8.55;;;;;;;19.06;59.70;102991.22;5255167;26;107501;-82
2024/04/12 07:23:49;;;;;;;14.23;8.32;;;;;;;19.10;59.66;102986.59;5272822;26;108413;-82
2024/04/12 07:26:27;;;;;;;12.77;7.50;;;;;;;19.15;59.65;103001.56;5249731;26;121509;-82
2024/04/12 07:29:02;;;;;;;12.68;7.65;;;;;;;19.18;59.56;103006.78;5280292;26;121112;-82
2024/04/12 07:31:34;;;;;;;11.25;6.93;;;;;;;19.20;59.23;103004.91;5282385;26;107975;-83
2024/04/12 07:34:05;;;;;;;13.50;7.95;;;;;;;19.23;59.62;103003.88;5264531;26;107352;-82
2024/04/12 07:36:34;;;;;;;13.55;7.50;;;;;;;19.26;59.50;103003.75;5290252;26;122059;-82
2024/04/12 07:39:04;;;;;;;13.30;7.22;;;;;;;19.30;59.37;102999.09;5262594;26;121897;-82
2024/04/12 07:41:38;;;;;;;15.23;7.47;;;;;;;19.36;59.66;102993.41;5249821;26;107868;-81
2024/04/12 07:44:05;;;;;;;12.15;7.75;;;;;;;19.42;59.21;102993.13;5259411;26;105349;-81
2024/04/12 07:46:33;;;;;;;14.70;7.45;;;;;;;19.48;59.33;102992.84;5267394;26;121233;-80
2024/04/12 07:49:07;;;;;;;10.85;6.90;;;;;;;19.53;58.99;102985.41;5288463;26;122522;-80
2024/04/12 07:51:40;;;;;;;17.33;7.50;;;;;;;19.58;59.17;102987.88;5261026;26;107030;-80
2024/04/12 07:54:11;;;;;;;11.07;7.00;;;;;;;19.64;59.19;103003.72;5262516;26;107351;-81
2024/04/12 07:56:43;;;;;;;14.18;7.60;;;;;;;19.68;59.18;102991.84;5248283;26;120512;-80
2024/04/12 07:59:17;;;;;;;13.48;8.20;;;;;;;19.75;58.97;102997.84;5273451;26;122936;-80
2024/04/12 08:01:45;;;;;;;12.38;7.35;;;;;;;19.78;58.70;102995.00;5279371;26;108283;-81
2024/04/12 08:04:23;;;;;;;12.55;7.50;;;;;;;19.80;58.78;102999.34;5261383;26;107437;-80
2024/04/12 08:06:57;;;;;;;13.07;7.07;;;;;;;19.84;58.76;102989.31;5251825;26;121111;-80
2024/04/12 08:09:35;;;;;;;16.23;8.70;;;;;;;19.87;58.73;102999.91;5285279;26;122059;-81
2024/04/12 08:12:14;;;;;;;13.55;7.85;;;;;;;19.90;58.46;102994.38;5287345;26;106861;-80
2024/04/12 08:14:52;;;;;;;16.38;7.55;;;;;;;19.92;58.53;103003.25;5284806;26;108913;-80
2024/04/12 08:17:26;;;;;;;13.38;7.53;;;;;;;19.95;58.63;103003.09;5293652;26;120953;-80
2024/04/12 08:20:00;;;;;;;11.90;7.93;;;;;;;19.98;58.35;103002.94;5276338;26;121072;-81
2024/04/12 08:22:33;;;;;;;13.85;7.45;;;;;;;20.01;58.55;103008.16;5259426;26;108280;-81
2024/04/12 08:25:02;;;;;;;13.93;7.78;;;;;;;20.07;58.35;103006.13;5288198;26;107874;-81
2024/04/12 08:27:31;;;;;;;13.75;8.13;;;;;;;20.10;58.23;103014.00;5282469;26;122410;-81
2024/04/12 08:29:59;;;;;;;16.15;7.65;;;;;;;20.12;58.18;103009.47;5266488;26;122005;-82
2024/04/12 08:32:27;;;;;;;13.73;7.57;;;;;;;20.12;58.05;103015.69;5277095;26;107943;-81
2024/04/12 08:34:58;;;;;;;13.70;7.95;;;;;;;20.15;58.09;103020.03;5264696;26;106618;-81
2024/04/12 08:37:36;;;;;;;12.93;7.50;;;;;;;20.17;57.96;103012.75;5269120;26;121064;-81
2024/04/12 08:40:10;;;;;;;12.40;7.88;;;;;;;20.19;58.10;103019.81;5296079;26;122065;-82
2024/04/12 08:42:39;;;;;;;11.88;7.18;;;;;;;20.19;57.82;103010.84;5255953;26;107023;-81
2024/04/12 08:45:14;;;;;;;13.57;7.43;;;;;;;20.21;58.02;103017.03;5293571;26;106332;-82
2024/04/12 08:48:01;;;;;;;14.43;7.50;;;;;;;20.22;57.81;103021.47;5294110;26;122832;-81
2024/04/12 08:50:34;;;;;;;13.68;7.43;;;;;;;20.23;58.02;103017.84;5287829;26;123349;-82
2024/04/12 08:53:11;;;;;;;13.02;7.25;;;;;;;20.27;57.40;103019.44;5255195;26;110224;-81
2024/04/12 08:55:44;;;;;;;13.43;7.50;;;;;;;20.30;57.66;103019.25;5282302;26;108765;-82
2024/04/12 08:58:19;;;;;;;13.98;7.50;;;;;;;20.32;57.55;103011.97;5280722;26;121590;-81
2024/04/12 09:00:51;;;;;;;11.15;6.80;;;;;;;20.38;57.70;103022.44;5259947;26;120763;-81
2024/04/12 09:03:25;;;;;;;13.27;7.60;;;;;;;20.43;57.59;103014.97;5288935;26;106050;-81
2024/04/12 09:05:55;;;;;;;;;;;;;;;20.48;57.47;103005.81;5282178;26;107006;-81
2024/04/12 09:08:28;;;;;;;11.40;7.20;;;;;;;20.58;57.83;103001.66;5259954;26;122597;-81
2024/04/12 09:11:00;;;;;;;14.05;7.47;;;;;;;20.64;57.72;103004.06;5282538;26;120529;-81
2024/04/12 09:13:33;;;;;;;14.57;7.05;;;;;;;20.70;57.27;103001.06;5286115;26;107747;-82
2024/04/12 09:16:06;;;;;;;13.50;6.60;;;;;;;20.77;57.25;103007.81;5262120;26;108367;-82
2024/04/12 09:18:44;;;;;;;13.38;7.25;;;;;;;20.82;57.04;102998.66;5275759;26;121152;-82
2024/04/12 09:21:24;;;;;;;12.15;7.13;;;;;;;20.84;56.94;102992.22;5268777;26;121793;-81
2024/04/12 09:23:56;;;;;;;11.52;7.20;;;;;;;20.91;57.06;102992.78;5277117;26;106740;-81
2024/04/12 09:26:25;;;;;;;13.55;7.53;;;;;;;21.00;56.97;103003.00;5264289;26;107918;-81
2024/04/12 09:29:09;;;;;;;11.15;6.95;;;;;;;21.09;56.77;103002.50;5274812;26;121869;-80
2024/04/12 09:34:35;;;;;;;11.13;6.47;;;;;;;21.28;56.73;103001.50;5302385;26;107968;-81
2024/04/12 09:45:27;;;;;;;10.98;6.47;;;;;;;21.62;56.26;102994.22;5294272;26;107140;-81
2024/04/12 10:37:23;;;;;;;8.70;5.70;;;;;;;23.32;53.72;102974.84;5280353;26;123032;-81
2024/04/12 10:39:50;;;;;;;6.97;5.15;;;;;;;23.38;53.84;102974.44;5244910;26;121163;-81
2024/04/12 10:42:25;;;;;;;10.32;5.65;;;;;;;23.46;53.73;102968.53;5282593;26;108578;-81
2024/04/12 10:44:56;;;;;;;9.18;6.60;;;;;;;23.54;53.26;102968.00;5256569;26;109409;-81
2024/04/12 10:47:28;;;;;;;11.07;5.53;;;;;;;23.63;52.99;102964.69;5257584;26;123296;-81
2024/04/12 10:49:56;;;;;;;9.27;5.35;;;;;;;23.71;52.95;102959.63;5238137;26;121344;-81
2024/04/12 10:52:30;;;;;;;9.05;5.90;;;;;;;23.78;53.08;102952.81;5252907;26;107364;-81
2024/04/12 10:55:16;;;;;;;14.25;6.38;;;;;;;23.85;52.99;102961.44;5282421;26;107546;-81
2024/04/12 10:57:47;;;;;;;10.57;5.97;;;;;;;23.96;52.88;102968.81;5293290;26;122308;-81
2024/04/12 11:00:17;;;;;;;11.00;6.28;;;;;;;24.06;52.43;102953.69;5260849;26;120252;-80
2024/04/12 11:02:46;;;;;;;9.30;6.30;;;;;;;24.09;51.68;102953.47;5275026;26;107278;-80
2024/04/12 11:08:02;;;;;;;7.82;6.20;;;;;;;24.20;51.65;102956.28;5294414;26;123009;-80
2024/04/12 11:10:57;;;;;;;9.63;6.28;;;;;;;24.26;51.13;102939.63;5288094;26;121953;-81
2024/04/12 11:13:35;;;;;;;9.82;6.03;;;;;;;24.36;51.33;102955.25;5270925;26;106325;-81
2024/04/12 11:32:42;;;;;;;10.40;5.78;;;;;;;24.49;49.93;102934.44;5282236;26;122215;-81
2024/04/12 11:35:15;;;;;;;6.40;5.18;;;;;;;24.54;50.36;102932.28;5280793;26;109332;-80
2024/04/12 11:37:43;;;;;;;8.15;5.15;;;;;;;24.57;49.95;102929.34;5261922;26;108608;-81
2024/04/12 11:40:17;;;;;;;7.80;5.47;;;;;;;24.61;49.86;102932.72;5276707;26;122274;-81
2024/04/12 11:42:46;;;;;;;11.25;5.43;;;;;;;24.61;48.99;102932.72;5290390;26;119843;-81
2024/04/12 11:45:17;;;;;;;9.60;4.97;;;;;;;24.58;48.50;102920.25;5287885;26;107260;-81
2024/04/12 11:47:44;;;;;;;8.35;5.05;;;;;;;24.57;48.92;102923.06;5263822;26;107437;-81
2024/04/12 11:50:12;;;;;;;9.10;5.38;;;;;;;24.55;48.81;102917.75;5257813;26;121938;-81
2024/04/12 11:52:40;;;;;;;6.68;4.70;;;;;;;24.58;48.54;102916.66;5273999;26;122141;-80
2024/04/12 11:55:08;;;;;;;6.45;4.95;;;;;;;24.64;49.22;102917.09;5287880;26;107966;-80
2024/04/12 11:57:36;;;;;;;7.80;4.65;;;;;;;24.76;48.94;102909.06;5263301;26;106608;-81
2024/04/12 12:00:09;;;;;;;8.35;4.50;;;;;;;24.87;48.73;102901.00;5255248;26;121181;-80
2024/04/12 12:02:43;;;;;;;9.45;5.28;;;;;;;25.02;48.08;102905.28;5262127;26;121901;-81
2024/04/12 12:05:17;;;;;;;7.30;4.60;;;;;;;25.16;48.08;102911.53;5283345;26;108578;-81
2024/04/12 12:07:46;;;;;;;8.30;4.38;;;;;;;25.27;47.94;102908.91;5296944;26;107730;-81
2024/04/12 12:10:14;;;;;;;8.40;4.60;;;;;;;25.36;47.71;102902.81;5282856;26;122002;-82
2024/04/12 12:12:42;;;;;;;6.97;4.32;;;;;;;25.43;46.88;102908.66;5280587;26;121746;-81
2024/04/12 12:15:12;;;;;;;8.27;4.75;;;;;;;25.49;47.17;102896.47;5284688;26;107565;-82
2024/04/12 12:17:40;;;;;;;7.30;4.70;;;;;;;25.54;46.52;102894.25;5258191;26;105788;-83
2024/04/12 12:20:08;;;;;;;7.60;4.47;;;;;;;25.57;46.50;102899.44;5282401;26;122407;-81
2024/04/12 12:22:38;;;;;;;8.30;4.80;;;;;;;25.60;46.56;102910.06;5291376;26;121977;-81
2024/04/12 12:25:07;;;;;;;7.18;5.00;;;;;;;25.62;46.32;102902.69;5277736;26;108686;-82
2024/04/12 12:27:35;;;;;;;8.32;4.53;;;;;;;25.64;46.50;102889.84;5250168;26;107720;-82
2024/04/12 12:30:13;;;;;;;8.35;4.70;;;;;;;25.69;46.04;102903.91;5292431;26;122851;-82
2024/04/12 12:32:44;;;;;;;11.40;4.78;;;;;;;25.74;46.00;102901.72;5267135;26;120980;-81
2024/04/12 12:35:21;;;;;;;8.55;4.93;;;;;;;25.72;45.77;102898.25;5271958;26;107786;-82
2024/04/12 12:37:51;;;;;;;7.97;4.10;;;;;;;25.71;45.11;102896.53;5270019;26;107643;-81
2024/04/12 12:40:21;;;;;;;7.88;4.40;;;;;;;25.64;45.16;102890.72;5275247;26;123525;-81
2024/04/12 12:42:51;;;;;;;8.35;4.05;;;;;;;25.61;45.45;102884.66;5272659;26;124905;-81
2024/04/12 12:45:20;;;;;;;6.78;4.80;;;;;;;25.60;45.02;102889.22;5279680;26;107574;-81
2024/04/12 12:47:48;;;;;;;8.93;4.68;;;;;;;25.62;45.30;102897.25;5284125;26;108197;-82
2024/04/12 12:50:23;;;;;;;9.57;4.63;;;;;;;25.64;44.94;102895.28;5253101;26;123042;-82
2024/04/12 12:52:51;;;;;;;7.45;4.07;;;;;;;25.65;45.08;102886.16;5239905;26;121338;-82
2024/04/12 12:55:22;;;;;;;5.65;4.25;;;;;;;25.65;44.71;102891.56;5271771;26;106348;-82
2024/04/12 12:58:09;;;;;;;8.05;4.35;;;;;;;25.62;44.71;102875.53;5247909;26;107629;-82
2024/04/12 13:00:43;;;;;;;10.35;4.60;;;;;;;25.58;45.13;102869.47;5277751;26;122219;-82
2024/04/12 13:03:11;;;;;;;6.25;4.28;;;;;;;25.58;45.00;102874.03;5287897;26;122123;-81
2024/04/12 13:05:40;;;;;;;8.00;4.10;;;;;;;25.55;44.47;102868.84;5265298;26;113336;-81